Musko, Sweden

10:34 PM CET on December 12, 2018 (GMT +0100)
Långgarn 99 | | Change Station

Elev 56 ft 59.03 °N, 18.07 °E | Updated 36 seconds ago

Molnigt
Molnigt
33.6 °F
Feels Like 34 °F
N
0.2
Vind Växlande Vind from O/NO
Gusts 1.1 miles/tim

Idag
High -- | Low -- °F
--% Chance of Precip.
Yesterday
High -- | Low -- °F
Precip. -- tum
Lufttryck 30.51 tum
Sikt 6.2 miles
Molnigt Mestadels molnigt 600 ft
Molnigt 4200 ft
Vindavkylning 34 °F
Daggpunkt 33 °F
Luftfuktighet 98%
Rainfall 0.00 tum
Snow Depth Not available.
8:31 AM 2:50 PM
Första kvarteret, 27% visible
METAR ESSB 122120Z AUTO 35007KT 9999 BKN006/// OVC042/// 01/M00 Q1033
Lufttryck 30.51 tum
Sikt 6.2 miles
Molnigt Mestadels molnigt 600 ft
Molnigt 4200 ft
Vindavkylning 34 °F
Daggpunkt 33 °F
Luftfuktighet 98%
Rainfall 0.00 tum
Snow Depth Not available.
8:31 AM 2:50 PM
Första kvarteret, 27% visible
METAR ESSB 122120Z AUTO 35007KT 9999 BKN006/// OVC042/// 01/M00 Q1033

Get Severe Weather Alerts

Thanks for signing up!

Be on the lookout for a verification email in your inbox.

You'll start receiving the daily forecast at 6 AM.

×

10-Day Weather Forecast

×

Almanac

Astronomi

Dec. 12, 2018 Rise Set
Actual Time
Civil Twilight
Nautical Twilight
Astronomical Twilight
Månen
Length Of Visible Light
Dagens längd
Tomorrow will be .
, % of the Moon is Illuminated

Today's Extremes

Country Highs Country Lows

Community

WunderPhotos

Category 6

Welcome to Category 6. This is the collective home for Weather Underground's featured writeups by Dr. Jeff Masters (right), Bob Henson (left), Chris Burt, and other regular contributors.

Nearby

Air Quality

  Air Quality AQ Index Pollutant
Not available.

Snödjup

Station Depth Elevation

Earthquake Activity

Stad Distance Mag. Time & Date
Minimum magnitude displayed is 2.5.

Coastal Water Temperatures

Plats Temperatur

Stations

Nearby Weather Stations

Station Location Temp Vindavkylning Daggpunkt Luftfuktighet Vind Precip. Elev Uppdaterad Type